Time;durP1;ratioP1;P1;durP2;ratioP2;P2;SDS_P1;SDS_P2;PMS_P1;PMS_P2;Temp;Humidity;BMP_temperature;BMP_pressure;BME280_temperature;BME280_humidity;BME280_pressure;Samples;Min_cycle;Max_cycle;Signal;HPM_P1;HPM_P2
2021/05/14 00:00:43;;;;;;;8.38;4.97;;;8.30;99.90;;;;;;6187310;23;20025;-95
2021/05/14 00:03:17;;;;;;;8.60;4.65;;;8.40;99.90;;;;;;6165154;23;20016;-95
2021/05/14 00:05:49;;;;;;;5.53;4.25;;;8.40;99.90;;;;;;6187683;23;20020;-95
2021/05/14 00:08:15;;;;;;;10.98;5.35;;;8.40;99.90;;;;;;6188086;23;20016;-94
2021/05/14 00:10:44;;;;;;;9.20;4.18;;;8.40;99.90;;;;;;6187991;23;20025;-94
2021/05/14 00:13:14;;;;;;;4.68;4.25;;;8.40;99.90;;;;;;6213597;23;20516;-94
2021/05/14 00:15:46;;;;;;;10.15;4.10;;;8.60;99.90;;;;;;6223253;23;20020;-95
2021/05/14 00:18:13;;;;;;;8.10;3.97;;;8.30;99.90;;;;;;6188412;23;20023;-95
2021/05/14 00:20:42;;;;;;;11.45;2.75;;;8.30;99.90;;;;;;6213094;23;20044;-94
2021/05/14 00:23:10;;;;;;;5.40;3.10;;;8.30;99.90;;;;;;6214975;23;20470;-94
2021/05/14 00:25:36;;;;;;;9.30;3.17;;;8.30;99.90;;;;;;6213289;23;20044;-93
2021/05/14 00:28:04;;;;;;;11.88;3.45;;;8.20;99.90;;;;;;6163431;23;20029;-94
2021/05/14 00:30:30;;;;;;;6.35;3.45;;;8.20;99.90;;;;;;6213179;23;20104;-94
2021/05/14 00:32:57;;;;;;;6.72;2.55;;;8.20;99.90;;;;;;6162744;23;20013;-95
2021/05/14 00:35:23;;;;;;;4.10;2.58;;;8.30;99.90;;;;;;6138697;23;20047;-94
2021/05/14 00:37:49;;;;;;;7.13;2.42;;;8.30;99.90;;;;;;6187393;23;20020;-93
2021/05/14 00:40:15;;;;;;;9.55;3.17;;;8.30;99.90;;;;;;6213264;23;20068;-95
2021/05/14 00:42:41;;;;;;;11.27;2.45;;;8.30;99.90;;;;;;6212151;23;20025;-94
2021/05/14 00:45:20;;;;;;;10.48;2.58;;;8.30;99.90;;;;;;6188527;23;20020;-94
2021/05/14 00:48:03;;;;;;;5.40;2.30;;;8.30;99.90;;;;;;6187902;23;20024;-94
2021/05/14 00:50:31;;;;;;;10.38;3.00;;;8.40;99.90;;;;;;6188357;23;20023;-95
2021/05/14 00:53:38;;;;;;;14.25;3.10;;;8.30;99.90;;;;;;6187327;23;20024;-95
2021/05/14 00:56:10;;;;;;;7.30;2.35;;;8.40;99.90;;;;;;6188125;23;20338;-94
2021/05/14 00:58:39;;;;;;;9.27;2.33;;;8.40;99.90;;;;;;6187523;23;20016;-94
2021/05/14 01:04:36;;;;;;;4.28;1.52;;;8.50;99.90;;;;;;6212591;23;20119;-93
2021/05/14 01:07:30;;;;;;;9.43;2.03;;;8.30;99.90;;;;;;6212451;23;20055;-94
2021/05/14 01:10:15;;;;;;;7.47;2.03;;;8.30;99.90;;;;;;6205698;23;20028;-94
2021/05/14 01:16:57;;;;;;;3.92;2.08;;;8.20;99.90;;;;;;6040175;23;20018;-94
2021/05/14 01:19:53;;;;;;;5.07;1.88;;;8.30;99.90;;;;;;6160509;23;20128;-94
2021/05/14 01:22:26;;;;;;;4.63;1.80;;;8.30;99.90;;;;;;6106364;23;20555;-93
2021/05/14 01:24:57;;;;;;;10.75;1.98;;;8.30;99.90;;;;;;6131345;23;20771;-93
2021/05/14 01:27:33;;;;;;;14.23;2.88;;;8.30;99.90;;;;;;6131223;23;20017;-93
2021/05/14 01:34:20;;;;;;;7.32;1.85;;;8.40;99.90;;;;;;6105574;23;20029;-93
2021/05/14 01:41:42;;;;;;;;;;;;;;;;;;;;;
2021/05/14 01:48:30;;;;;;;6.07;2.38;;;8.40;99.90;;;;;;6028847;23;20113;-92
2021/05/14 01:51:16;;;;;;;5.60;2.38;;;8.40;99.90;;;;;;6106326;23;20025;-95
2021/05/14 01:53:51;;;;;;;5.90;2.50;;;8.30;99.90;;;;;;6067654;23;20022;-95
2021/05/14 01:56:41;;;;;;;12.35;5.35;;;8.30;99.90;;;;;;6067698;23;20022;-94
2021/05/14 01:59:07;;;;;;;15.43;7.90;;;8.40;99.90;;;;;;6024682;23;20781;-95
2021/05/14 02:01:35;;;;;;;14.60;8.07;;;8.40;99.90;;;;;;6021895;23;20070;-95
2021/05/14 02:04:04;;;;;;;17.98;9.90;;;8.40;99.90;;;;;;6021800;23;20018;-95
2021/05/14 02:06:30;;;;;;;15.68;9.35;;;8.40;99.90;;;;;;6069442;23;20022;-94
2021/05/14 02:09:00;;;;;;;12.10;8.65;;;8.40;99.90;;;;;;6043635;23;20044;-94
2021/05/14 02:11:26;;;;;;;18.67;11.70;;;8.30;99.90;;;;;;6044563;23;20014;-94
2021/05/14 02:13:52;;;;;;;23.20;13.90;;;8.30;99.90;;;;;;6068046;23;20082;-94
2021/05/14 02:16:21;;;;;;;15.00;8.70;;;8.20;99.90;;;;;;6044913;23;20454;-93
2021/05/14 02:18:47;;;;;;;13.73;8.07;;;8.20;99.90;;;;;;6020407;23;20490;-94
2021/05/14 02:21:15;;;;;;;11.88;8.35;;;8.20;99.90;;;;;;6068310;23;20018;-94
2021/05/14 02:23:44;;;;;;;11.93;6.15;;;8.20;99.90;;;;;;6052230;23;20022;-92
2021/05/14 02:26:13;;;;;;;13.93;6.70;;;8.10;99.90;;;;;;6132749;23;20025;-95
2021/05/14 02:29:03;;;;;;;13.23;6.03;;;8.10;99.90;;;;;;6141707;23;20169;-94
2021/05/14 02:31:32;;;;;;;8.00;5.13;;;8.10;99.90;;;;;;6108729;23;20087;-94
2021/05/14 02:34:05;;;;;;;11.20;4.82;;;8.00;99.90;;;;;;6134156;23;20021;-95
2021/05/14 02:36:31;;;;;;;12.82;4.95;;;8.00;99.90;;;;;;6134544;23;20414;-94
2021/05/14 02:38:57;;;;;;;8.27;4.85;;;8.00;99.90;;;;;;6134518;23;20024;-94
2021/05/14 02:41:23;;;;;;;9.70;4.70;;;8.00;99.90;;;;;;6135278;23;20092;-94
2021/05/14 02:43:52;;;;;;;4.32;3.90;;;8.00;99.90;;;;;;6143096;23;20012;-95
2021/05/14 02:46:19;;;;;;;10.55;4.95;;;7.90;99.90;;;;;;6214669;23;20016;-95
2021/05/14 02:48:45;;;;;;;11.82;4.53;;;8.00;99.90;;;;;;6189230;23;20028;-94
2021/05/14 02:51:12;;;;;;;7.65;3.70;;;7.90;99.90;;;;;;6189041;23;20393;-94
2021/05/14 02:53:41;;;;;;;7.45;3.38;;;7.90;99.90;;;;;;6213848;23;20017;-93
2021/05/14 02:56:07;;;;;;;7.80;2.38;;;7.90;99.90;;;;;;6213414;23;20020;-94
2021/05/14 02:58:40;;;;;;;11.55;2.70;;;7.90;99.90;;;;;;6214074;23;20017;-94
2021/05/14 03:01:14;;;;;;;12.35;3.22;;;7.90;99.90;;;;;;6189162;23;20016;-95
2021/05/14 03:03:44;;;;;;;8.27;3.03;;;7.90;99.90;;;;;;6214501;23;20100;-94
2021/05/14 03:06:13;;;;;;;6.85;2.53;;;8.00;99.90;;;;;;6188380;23;20031;-94
2021/05/14 03:08:51;;;;;;;6.03;2.33;;;8.00;99.90;;;;;;6214102;23;20019;-94
2021/05/14 03:11:23;;;;;;;10.25;3.53;;;8.00;99.90;;;;;;6164589;23;20502;-92
2021/05/14 03:13:51;;;;;;;9.20;3.10;;;8.10;99.90;;;;;;6164931;23;20016;-95
2021/05/14 03:16:22;;;;;;;11.35;3.22;;;8.10;99.90;;;;;;6188935;23;20020;-95
2021/05/14 03:18:53;;;;;;;13.43;3.30;;;8.10;99.90;;;;;;6188199;23;20455;-93
2021/05/14 03:21:19;;;;;;;12.60;3.60;;;8.10;99.90;;;;;;6188430;23;20023;-93
2021/05/14 03:23:45;;;;;;;10.52;3.15;;;8.20;99.90;;;;;;6188579;23;20259;-93
2021/05/14 03:26:14;;;;;;;13.30;3.10;;;8.20;99.90;;;;;;6187873;23;20022;-94
2021/05/14 03:28:41;;;;;;;11.70;3.20;;;8.20;99.90;;;;;;6140825;23;20016;-94
2021/05/14 03:31:07;;;;;;;12.57;3.10;;;8.20;99.90;;;;;;6212932;23;20658;-95
2021/05/14 03:33:33;;;;;;;11.63;4.18;;;8.30;99.90;;;;;;6213307;23;20032;-94
2021/05/14 03:35:59;;;;;;;11.75;3.13;;;8.30;99.90;;;;;;6187485;23;20516;-95
2021/05/14 03:38:33;;;;;;;15.55;3.85;;;8.30;99.90;;;;;;6214089;23;20696;-95
2021/05/14 03:41:03;;;;;;;12.82;4.10;;;8.30;99.90;;;;;;6187384;23;20062;-95
2021/05/14 03:43:29;;;;;;;14.13;3.23;;;8.40;99.90;;;;;;6187638;23;20455;-94
2021/05/14 03:45:55;;;;;;;14.23;3.17;;;8.40;99.90;;;;;;6212029;23;20067;-95
2021/05/14 03:48:22;;;;;;;20.73;3.10;;;8.60;99.90;;;;;;6187817;23;20029;-95
2021/05/14 03:50:53;;;;;;;13.05;3.40;;;8.40;99.90;;;;;;6187704;23;20016;-92
2021/05/14 03:53:22;;;;;;;13.82;3.75;;;8.40;99.90;;;;;;6187779;23;20016;-91
2021/05/14 03:55:50;;;;;;;16.17;3.30;;;8.40;99.90;;;;;;6188027;23;20100;-92
2021/05/14 03:58:16;;;;;;;11.65;3.28;;;8.40;99.90;;;;;;6163225;23;20336;-92
2021/05/14 04:00:42;;;;;;;10.98;2.42;;;8.50;99.90;;;;;;6213898;23;20035;-93
2021/05/14 04:03:16;;;;;;;16.73;3.35;;;8.50;99.90;;;;;;6187653;23;20528;-93
2021/05/14 04:05:42;;;;;;;20.33;3.13;;;8.50;99.90;;;;;;6139175;23;20355;-92
2021/05/14 04:08:10;;;;;;;19.65;3.50;;;8.50;99.90;;;;;;6187542;23;20021;-93
2021/05/14 04:16:07;;;;;;;12.98;4.20;;;8.60;99.90;;;;;;6211158;23;20016;-91
2021/05/14 04:18:36;;;;;;;14.90;4.30;;;8.60;99.90;;;;;;6162179;23;20079;-93
2021/05/14 04:21:03;;;;;;;26.25;4.38;;;8.60;99.90;;;;;;6210827;23;20458;-91
2021/05/14 04:23:29;;;;;;;17.67;6.38;;;8.60;99.90;;;;;;6213690;23;20016;-90
2021/05/14 04:25:55;;;;;;;18.05;6.22;;;8.50;99.90;;;;;;6186296;23;20019;-92
2021/05/14 04:28:21;;;;;;;19.88;5.15;;;8.50;99.90;;;;;;6186959;23;20115;-91
2021/05/14 04:30:47;;;;;;;17.73;5.53;;;8.50;99.90;;;;;;6213935;23;20308;-91
2021/05/14 04:33:12;;;;;;;21.15;5.50;;;8.50;99.90;;;;;;6211936;23;20012;-93
2021/05/14 04:35:38;;;;;;;20.98;6.25;;;8.50;99.90;;;;;;6213622;23;20016;-93
2021/05/14 04:38:04;;;;;;;16.13;5.10;;;8.40;99.90;;;;;;6212905;23;20013;-92
2021/05/14 04:40:30;;;;;;;17.83;4.72;;;8.50;99.90;;;;;;6188162;23;20438;-92
2021/05/14 04:43:05;;;;;;;17.15;4.20;;;8.40;99.90;;;;;;6187503;23;20058;-94
2021/05/14 04:45:31;;;;;;;14.38;4.10;;;8.50;99.90;;;;;;6214090;23;20083;-92
2021/05/14 04:47:58;;;;;;;18.70;3.67;;;8.40;99.90;;;;;;6212579;23;20013;-93
2021/05/14 04:50:25;;;;;;;18.92;3.30;;;8.50;99.90;;;;;;6188394;23;20021;-91
2021/05/14 04:53:05;;;;;;;14.98;2.75;;;8.40;99.90;;;;;;6187272;23;20334;-94
2021/05/14 04:55:32;;;;;;;16.73;3.63;;;8.50;99.90;;;;;;6214237;23;20363;-93
2021/05/14 04:57:58;;;;;;;17.65;3.17;;;8.50;99.90;;;;;;6211501;23;20016;-94
2021/05/14 05:00:26;;;;;;;14.75;3.20;;;8.50;99.90;;;;;;6137856;23;20509;-93
2021/05/14 05:02:53;;;;;;;18.80;3.72;;;8.50;99.90;;;;;;6212729;23;20049;-92
2021/05/14 05:05:20;;;;;;;15.65;3.05;;;8.50;99.90;;;;;;6211673;23;20021;-92
2021/05/14 05:07:46;;;;;;;21.00;4.18;;;8.50;99.90;;;;;;6186163;23;20446;-94
2021/05/14 05:10:12;;;;;;;21.08;4.55;;;8.50;99.90;;;;;;6211750;23;20055;-94
2021/05/14 05:12:40;;;;;;;14.18;3.95;;;8.50;99.90;;;;;;6186344;23;20462;-93
2021/05/14 05:15:08;;;;;;;22.48;3.35;;;8.50;99.90;;;;;;6161759;23;20040;-94
2021/05/14 05:17:38;;;;;;;17.58;3.65;;;8.50;99.90;;;;;;6212212;23;20017;-93
2021/05/14 05:20:10;;;;;;;16.73;3.83;;;8.50;99.90;;;;;;6186791;23;20067;-93
2021/05/14 05:22:36;;;;;;;20.50;4.57;;;8.50;99.90;;;;;;6186799;23;20259;-93
2021/05/14 05:25:03;;;;;;;17.92;3.58;;;8.60;99.90;;;;;;6211921;23;20099;-92
2021/05/14 05:27:29;;;;;;;9.57;2.50;;;8.60;99.90;;;;;;6214241;23;20054;-95
2021/05/14 05:29:55;;;;;;;11.30;2.40;;;8.60;99.90;;;;;;6212614;23;20087;-95
2021/05/14 05:32:20;;;;;;;10.07;2.65;;;8.60;99.90;;;;;;6187100;23;20067;-93
2021/05/14 05:34:48;;;;;;;15.80;3.42;;;8.60;99.90;;;;;;6187978;23;20020;-94
2021/05/14 05:37:14;;;;;;;22.35;3.75;;;8.70;99.90;;;;;;6213834;23;20017;-94
2021/05/14 05:39:40;;;;;;;14.50;2.72;;;8.70;99.90;;;;;;6212272;23;20069;-93
2021/05/14 05:42:06;;;;;;;11.85;3.30;;;8.70;99.90;;;;;;6186202;23;20381;-93
2021/05/14 05:44:32;;;;;;;12.45;3.03;;;8.80;99.90;;;;;;6185997;23;20024;-93
2021/05/14 05:46:58;;;;;;;16.50;4.07;;;8.80;99.90;;;;;;6212469;23;20074;-95
2021/05/14 05:49:24;;;;;;;19.30;4.43;;;8.90;99.90;;;;;;6161899;23;20021;-92
2021/05/14 05:51:51;;;;;;;12.15;3.97;;;8.90;99.90;;;;;;6187498;23;20023;-93
2021/05/14 05:54:19;;;;;;;14.32;2.60;;;9.00;99.90;;;;;;6211096;23;20017;-92
2021/05/14 05:56:46;;;;;;;13.82;3.28;;;9.10;99.90;;;;;;6186709;23;20020;-93
2021/05/14 05:59:16;;;;;;;18.15;4.03;;;9.10;99.90;;;;;;6211541;23;20454;-93
2021/05/14 06:02:05;;;;;;;19.83;2.93;;;9.10;99.90;;;;;;6211327;23;20078;-91
2021/05/14 06:04:32;;;;;;;19.85;3.40;;;9.20;99.90;;;;;;6222092;23;20247;-93
2021/05/14 06:06:58;;;;;;;18.15;2.90;;;9.20;99.90;;;;;;6186483;23;20324;-92
2021/05/14 06:09:25;;;;;;;17.73;2.95;;;9.20;99.90;;;;;;6211109;23;20024;-94
2021/05/14 06:11:51;;;;;;;10.98;2.60;;;9.20;99.90;;;;;;6187079;23;20024;-93
2021/05/14 06:14:17;;;;;;;18.70;3.30;;;9.40;99.90;;;;;;6211040;23;20021;-92
2021/05/14 06:16:43;;;;;;;17.83;2.42;;;9.40;99.90;;;;;;6186464;23;20047;-93
2021/05/14 06:19:28;;;;;;;11.70;2.17;;;9.50;99.90;;;;;;6185272;23;20020;-91
2021/05/14 06:21:54;;;;;;;16.85;3.08;;;9.60;99.90;;;;;;6211935;23;20016;-93
2021/05/14 06:24:20;;;;;;;14.00;3.05;;;9.60;99.90;;;;;;6161244;23;20012;-93
2021/05/14 06:26:47;;;;;;;15.05;2.65;;;9.60;99.90;;;;;;6186842;23;20463;-93
2021/05/14 06:29:14;;;;;;;16.88;2.72;;;9.60;99.90;;;;;;6211065;23;20020;-92
2021/05/14 06:31:41;;;;;;;15.95;3.10;;;9.70;99.90;;;;;;6186711;23;20043;-93
2021/05/14 06:34:09;;;;;;;18.45;3.03;;;9.60;99.90;;;;;;6186812;23;20024;-94
2021/05/14 06:36:35;;;;;;;14.95;2.88;;;9.60;99.90;;;;;;6212150;23;20075;-92
2021/05/14 06:39:02;;;;;;;17.88;4.05;;;9.70;99.90;;;;;;6212157;23;20100;-93
2021/05/14 06:41:28;;;;;;;12.00;2.90;;;9.80;99.90;;;;;;6209001;23;20443;-93
2021/05/14 06:43:58;;;;;;;20.30;2.90;;;9.90;99.90;;;;;;6210537;23;20031;-94
2021/05/14 06:46:24;;;;;;;17.17;4.28;;;10.00;99.90;;;;;;6210334;23;20017;-94
2021/05/14 06:48:51;;;;;;;14.20;3.13;;;10.00;99.90;;;;;;6211073;23;20021;-95
2021/05/14 06:51:18;;;;;;;14.85;3.08;;;10.00;99.90;;;;;;6209130;23;20020;-92
2021/05/14 06:53:44;;;;;;;17.42;3.72;;;9.90;99.90;;;;;;6209209;23;20017;-92
2021/05/14 06:56:11;;;;;;;12.90;3.45;;;9.90;99.90;;;;;;6181514;23;20020;-92
2021/05/14 06:58:36;;;;;;;14.43;3.13;;;9.90;99.90;;;;;;6182414;23;20087;-92
2021/05/14 07:01:02;;;;;;;14.43;3.83;;;10.10;99.90;;;;;;6210488;23;20533;-92
2021/05/14 07:03:28;;;;;;;19.15;3.90;;;10.30;99.90;;;;;;6208504;23;20017;-92
2021/05/14 07:05:54;;;;;;;18.35;3.92;;;10.30;99.90;;;;;;6184318;23;20021;-91
2021/05/14 07:08:20;;;;;;;14.23;4.38;;;10.20;99.90;;;;;;6183286;23;20017;-91
2021/05/14 07:10:46;;;;;;;17.13;3.67;;;10.10;99.90;;;;;;6210710;23;20522;-92
2021/05/14 07:13:12;;;;;;;20.77;3.88;;;10.00;99.90;;;;;;6210023;23;20020;-92
2021/05/14 07:15:37;;;;;;;16.65;3.25;;;10.00;99.90;;;;;;6184259;23;20017;-91
2021/05/14 07:18:04;;;;;;;20.38;3.28;;;10.00;99.90;;;;;;6209427;23;20020;-91
2021/05/14 07:20:32;;;;;;;18.48;3.58;;;10.00;99.90;;;;;;6209296;23;20276;-89
2021/05/14 07:22:59;;;;;;;16.73;3.90;;;10.00;99.90;;;;;;6186419;23;20066;-87
2021/05/14 07:25:25;;;;;;;29.48;3.58;;;10.10;99.90;;;;;;6210438;23;20095;-92
2021/05/14 07:27:50;;;;;;;14.73;3.42;;;10.20;99.90;;;;;;6185928;23;20418;-89
2021/05/14 07:30:17;;;;;;;17.98;2.45;;;10.30;99.90;;;;;;6209895;23;20020;-90
2021/05/14 07:32:43;;;;;;;13.20;3.00;;;10.30;99.90;;;;;;6185477;23;20434;-89
2021/05/14 07:35:09;;;;;;;9.23;2.67;;;10.30;99.90;;;;;;6212110;23;20012;-88
2021/05/14 07:37:40;;;;;;;14.35;3.05;;;10.40;99.90;;;;;;6212278;23;20450;-89
2021/05/14 07:40:07;;;;;;;13.48;2.60;;;10.50;99.90;;;;;;6211424;23;20494;-90
2021/05/14 07:42:37;;;;;;;14.18;2.47;;;10.50;99.90;;;;;;6186486;23;20016;-90
2021/05/14 07:45:04;;;;;;;12.25;3.00;;;10.60;99.90;;;;;;6211439;23;20075;-90
2021/05/14 07:47:30;;;;;;;13.52;4.28;;;10.60;99.90;;;;;;6209809;23;20020;-89
2021/05/14 07:49:56;;;;;;;13.50;4.20;;;10.70;99.90;;;;;;6211511;23;20024;-89
2021/05/14 07:52:23;;;;;;;14.68;3.65;;;10.70;99.90;;;;;;6159415;23;20020;-89
2021/05/14 07:54:50;;;;;;;13.55;3.38;;;10.70;99.90;;;;;;6210475;23;20012;-89
2021/05/14 07:57:15;;;;;;;15.50;2.55;;;10.80;99.90;;;;;;6211342;23;20034;-89
2021/05/14 08:00:02;;;;;;;17.42;3.30;;;10.80;99.90;;;;;;6189225;23;20032;-90
2021/05/14 08:02:37;;;;;;;12.38;3.22;;;10.80;99.90;;;;;;6210039;23;20074;-89
2021/05/14 08:05:04;;;;;;;11.25;3.33;;;10.90;99.90;;;;;;6211594;23;20016;-90
2021/05/14 08:07:29;;;;;;;15.85;3.15;;;11.00;99.90;;;;;;6184760;23;20017;-90
2021/05/14 08:10:02;;;;;;;13.85;2.95;;;11.20;99.90;;;;;;6196181;23;20020;-91
2021/05/14 08:12:28;;;;;;;14.07;3.42;;;11.30;99.90;;;;;;6208688;23;20044;-91
2021/05/14 08:14:57;;;;;;;14.27;3.05;;;11.30;99.90;;;;;;6209478;23;20017;-91
2021/05/14 08:17:23;;;;;;;12.55;2.30;;;11.40;99.90;;;;;;6184704;23;20067;-89
2021/05/14 08:19:51;;;;;;;16.40;3.00;;;11.60;99.90;;;;;;6185056;23;20056;-92
2021/05/14 08:22:17;;;;;;;15.57;2.95;;;11.30;99.90;;;;;;6209206;23;20019;-91
2021/05/14 08:24:43;;;;;;;13.02;2.40;;;11.40;99.90;;;;;;6184913;23;20543;-90
2021/05/14 08:27:13;;;;;;;9.38;1.95;;;11.40;99.90;;;;;;6209951;23;20009;-89
2021/05/14 08:29:38;;;;;;;9.05;2.17;;;11.40;99.90;;;;;;6210945;23;20810;-91
2021/05/14 08:32:05;;;;;;;11.00;2.45;;;11.50;99.90;;;;;;6184881;23;20019;-91
2021/05/14 08:34:30;;;;;;;16.73;2.70;;;11.60;99.90;;;;;;6209058;23;20016;-91
2021/05/14 08:36:56;;;;;;;16.08;2.50;;;11.50;99.90;;;;;;6160628;23;20446;-90
2021/05/14 08:39:22;;;;;;;12.75;2.70;;;11.70;99.90;;;;;;6184520;23;20031;-91
2021/05/14 08:41:48;;;;;;;13.20;2.92;;;11.60;99.90;;;;;;6210774;23;20466;-92
2021/05/14 08:44:14;;;;;;;9.93;2.33;;;11.80;99.90;;;;;;6184505;23;20031;-91
2021/05/14 08:46:40;;;;;;;12.18;2.55;;;11.80;99.90;;;;;;6209875;23;20331;-91
2021/05/14 08:49:08;;;;;;;15.45;2.65;;;11.90;99.90;;;;;;6195115;23;20078;-91
2021/05/14 08:51:37;;;;;;;14.73;2.53;;;11.80;99.90;;;;;;6209068;23;20250;-92
2021/05/14 08:54:07;;;;;;;18.13;3.35;;;12.00;99.90;;;;;;6210034;23;20104;-91
2021/05/14 08:56:34;;;;;;;14.25;3.30;;;11.90;99.90;;;;;;6185193;23;20447;-91
2021/05/14 08:59:00;;;;;;;18.13;3.42;;;12.00;99.90;;;;;;6185082;23;20044;-92
2021/05/14 09:01:30;;;;;;;15.57;2.63;;;11.90;99.90;;;;;;6185148;23;20038;-90
2021/05/14 09:04:07;;;;;;;15.02;3.13;;;11.80;99.90;;;;;;6210348;23;20020;-90
2021/05/14 09:06:41;;;;;;;15.23;3.13;;;11.70;99.90;;;;;;6183862;23;20020;-93
2021/05/14 09:09:17;;;;;;;12.38;3.38;;;12.00;99.90;;;;;;6210086;23;20066;-91
2021/05/14 09:11:56;;;;;;;16.35;3.00;;;12.30;99.90;;;;;;6175196;23;20099;-93
2021/05/14 09:14:44;;;;;;;19.40;2.97;;;12.20;99.90;;;;;;6183881;23;20051;-91
2021/05/14 09:17:12;;;;;;;19.48;4.15;;;12.40;99.90;;;;;;6210321;23;20040;-90
2021/05/14 09:19:40;;;;;;;16.65;3.55;;;12.40;99.90;;;;;;6210900;23;20477;-91
2021/05/14 09:22:10;;;;;;;16.80;3.50;;;12.20;99.90;;;;;;6210398;23;20520;-91
2021/05/14 09:24:37;;;;;;;13.27;3.35;;;12.20;99.90;;;;;;6209104;23;20414;-92
2021/05/14 09:27:29;;;;;;;15.05;3.30;;;12.30;99.90;;;;;;6184976;23;20020;-91
2021/05/14 09:29:57;;;;;;;14.38;3.03;;;12.60;99.90;;;;;;6210458;23;20044;-92
2021/05/14 09:32:32;;;;;;;15.57;3.30;;;12.70;99.90;;;;;;6184886;23;20016;-92
2021/05/14 09:35:00;;;;;;;13.15;4.05;;;12.80;99.90;;;;;;6219411;23;20027;-92
2021/05/14 09:37:29;;;;;;;17.80;4.63;;;12.90;99.90;;;;;;6209061;23;20013;-90
2021/05/14 09:40:18;;;;;;;23.08;4.53;;;13.20;99.90;;;;;;6210121;23;20020;-92
2021/05/14 09:42:46;;;;;;;16.83;3.10;;;13.40;99.90;;;;;;6211372;23;20431;-91
2021/05/14 09:45:20;;;;;;;14.10;3.40;;;13.60;99.90;;;;;;6209800;23;20606;-92
2021/05/14 09:48:02;;;;;;;13.63;3.13;;;13.30;99.90;;;;;;6210013;23;20022;-92
2021/05/14 09:50:36;;;;;;;15.02;3.40;;;13.40;99.90;;;;;;6220289;23;20024;-91
2021/05/14 09:53:08;;;;;;;10.38;2.60;;;13.50;99.90;;;;;;6210085;23;20017;-91
2021/05/14 09:55:36;;;;;;;22.73;3.92;;;13.30;99.90;;;;;;6210000;23;20017;-90
2021/05/14 09:58:16;;;;;;;14.07;3.50;;;13.50;99.90;;;;;;6209658;23;20020;-92
2021/05/14 10:00:42;;;;;;;12.77;3.20;;;13.50;99.90;;;;;;6208896;23;20438;-93
2021/05/14 10:03:11;;;;;;;10.60;2.90;;;13.90;99.90;;;;;;6210064;23;20012;-92
2021/05/14 10:05:38;;;;;;;17.58;3.65;;;13.70;99.90;;;;;;6208189;23;20051;-93
2021/05/14 10:08:05;;;;;;;9.98;3.17;;;13.80;99.90;;;;;;6210598;23;20012;-92
2021/05/14 10:10:51;;;;;;;14.27;3.50;;;13.60;99.90;;;;;;6188807;23;20052;-93
2021/05/14 10:13:19;;;;;;;16.13;3.47;;;13.50;99.90;;;;;;6185121;23;20024;-92
2021/05/14 10:15:45;;;;;;;14.82;3.42;;;14.10;99.90;;;;;;6208880;23;20656;-90
2021/05/14 10:18:19;;;;;;;15.73;3.70;;;14.30;99.90;;;;;;6210494;23;20024;-91
2021/05/14 10:20:47;;;;;;;15.88;3.63;;;14.40;99.90;;;;;;6209101;23;20020;-92
2021/05/14 10:23:29;;;;;;;14.15;3.65;;;13.80;99.90;;;;;;6164422;23;20510;-93
2021/05/14 10:26:04;;;;;;;16.40;3.65;;;14.00;99.90;;;;;;6210088;23;20035;-92
2021/05/14 10:28:38;;;;;;;12.10;2.88;;;14.10;99.90;;;;;;6186725;23;20434;-92
2021/05/14 10:31:08;;;;;;;7.80;2.35;;;14.40;99.90;;;;;;6209848;23;20067;-93
2021/05/14 10:33:46;;;;;;;13.50;3.10;;;14.70;99.90;;;;;;6219541;23;20017;-92
2021/05/14 10:36:21;;;;;;;17.27;3.83;;;14.60;99.90;;;;;;6210601;23;20025;-93
2021/05/14 10:39:06;;;;;;;11.35;2.95;;;15.00;99.90;;;;;;6209701;23;20020;-92
2021/05/14 10:41:33;;;;;;;11.77;3.08;;;14.80;99.90;;;;;;6208909;23;20028;-93
2021/05/14 10:44:03;;;;;;;11.68;3.47;;;15.00;99.90;;;;;;6211797;23;20033;-93
2021/05/14 10:46:30;;;;;;;10.38;2.30;;;15.30;99.90;;;;;;6210812;23;20012;-93
2021/05/14 10:49:10;;;;;;;10.10;2.53;;;15.50;99.90;;;;;;6210932;23;20027;-89
2021/05/14 10:51:45;;;;;;;16.90;2.95;;;15.30;99.90;;;;;;6183446;23;20013;-93
2021/05/14 10:54:36;;;;;;;8.77;2.40;;;15.10;99.90;;;;;;6210414;23;20021;-93
2021/05/14 10:57:02;;;;;;;9.55;2.58;;;15.10;99.90;;;;;;6210260;23;20029;-92
2021/05/14 10:59:35;;;;;;;8.02;1.98;;;15.20;99.90;;;;;;6211107;23;20027;-93
2021/05/14 11:02:30;;;;;;;13.70;2.60;;;14.90;99.90;;;;;;6213278;23;20027;-93
2021/05/14 11:04:57;;;;;;;10.50;2.63;;;14.90;99.90;;;;;;6222108;23;20451;-92
2021/05/14 11:07:34;;;;;;;18.50;3.38;;;15.10;99.90;;;;;;6211664;23;20469;-93
2021/05/14 11:10:27;;;;;;;14.52;2.60;;;14.90;99.90;;;;;;6211613;23;20023;-92
2021/05/14 11:12:56;;;;;;;10.30;2.53;;;14.40;99.90;;;;;;6222742;23;20013;-94
2021/05/14 11:15:21;;;;;;;13.43;3.00;;;14.30;99.90;;;;;;6211619;23;20021;-92
2021/05/14 11:18:24;;;;;;;15.18;2.58;;;14.70;99.90;;;;;;6211473;23;20370;-93
2021/05/14 11:20:51;;;;;;;17.90;3.17;;;15.20;99.90;;;;;;6095405;23;20061;-94
2021/05/14 11:23:39;;;;;;;20.73;2.90;;;15.40;99.90;;;;;;6189052;23;20127;-93
2021/05/14 11:26:07;;;;;;;16.45;3.17;;;15.20;99.90;;;;;;6211620;23;20027;-92
2021/05/14 11:28:51;;;;;;;11.35;3.22;;;15.20;99.90;;;;;;6185837;23;20021;-94
2021/05/14 11:31:20;;;;;;;12.73;3.25;;;15.30;99.90;;;;;;6221393;23;20395;-92
2021/05/14 11:33:54;;;;;;;13.27;4.03;;;15.00;99.90;;;;;;6222091;23;20017;-92
2021/05/14 11:36:22;;;;;;;11.18;3.40;;;15.00;99.90;;;;;;6222836;23;20382;-92
2021/05/14 11:38:49;;;;;;;11.45;3.47;;;15.10;99.90;;;;;;6185011;23;20837;-93
2021/05/14 11:41:17;;;;;;;13.02;3.03;;;15.10;99.90;;;;;;6185656;23;20114;-93
2021/05/14 11:44:06;;;;;;;13.73;3.40;;;15.20;99.90;;;;;;6209138;23;20099;-92
2021/05/14 11:47:00;;;;;;;12.68;4.13;;;15.40;99.90;;;;;;6157659;23;20017;-92
2021/05/14 11:49:43;;;;;;;10.48;3.38;;;15.60;99.90;;;;;;6191860;23;20017;-93
2021/05/14 11:52:10;;;;;;;12.02;3.30;;;15.70;99.90;;;;;;6180919;23;20088;-92
2021/05/14 11:54:36;;;;;;;10.00;3.72;;;15.90;99.90;;;;;;6155700;23;20095;-93
2021/05/14 11:57:04;;;;;;;7.65;3.10;;;16.00;99.90;;;;;;6155737;23;20057;-92
2021/05/14 11:59:30;;;;;;;9.73;2.72;;;15.70;99.90;;;;;;6156001;23;20526;-93
2021/05/14 12:01:56;;;;;;;11.13;3.00;;;15.60;99.90;;;;;;6182336;23;20017;-93
2021/05/14 12:04:22;;;;;;;12.68;3.08;;;15.50;99.90;;;;;;6181782;23;20028;-92
2021/05/14 12:06:49;;;;;;;10.60;2.28;;;15.60;99.90;;;;;;6155984;23;20061;-92
2021/05/14 12:09:15;;;;;;;15.23;3.00;;;15.30;99.90;;;;;;6181226;23;20032;-92
2021/05/14 12:11:44;;;;;;;13.65;3.08;;;15.40;99.90;;;;;;6154763;23;20040;-93
2021/05/14 12:14:12;;;;;;;9.00;2.60;;;15.40;99.90;;;;;;6182521;23;20021;-92
2021/05/14 12:16:38;;;;;;;14.50;4.40;;;15.70;99.90;;;;;;6156164;23;20804;-93
2021/05/14 12:19:04;;;;;;;10.88;3.15;;;15.90;99.90;;;;;;6156130;23;20048;-92
2021/05/14 12:21:33;;;;;;;16.55;3.33;;;16.20;99.90;;;;;;6180992;23;20028;-92
2021/05/14 12:24:11;;;;;;;16.08;4.13;;;16.00;99.90;;;;;;6180118;23;20100;-92
2021/05/14 12:26:38;;;;;;;10.60;2.92;;;16.20;99.90;;;;;;6179337;23;20073;-91
2021/05/14 12:29:20;;;;;;;12.30;3.50;;;15.60;99.90;;;;;;6155853;23;20017;-93
2021/05/14 12:32:00;;;;;;;6.07;2.67;;;15.60;99.90;;;;;;6180667;23;20021;-92
2021/05/14 12:34:28;;;;;;;11.27;3.25;;;15.70;99.90;;;;;;6155604;23;20032;-92
2021/05/14 12:36:56;;;;;;;10.32;2.70;;;15.80;99.90;;;;;;6154429;23;20025;-92
2021/05/14 12:39:25;;;;;;;10.10;3.13;;;15.60;99.90;;;;;;6180409;23;20226;-92
2021/05/14 12:42:03;;;;;;;8.55;3.13;;;15.20;99.90;;;;;;6155051;23;20036;-92
2021/05/14 12:44:37;;;;;;;14.25;3.60;;;15.00;99.90;;;;;;6191515;23;20013;-91
2021/05/14 12:47:04;;;;;;;13.13;3.80;;;14.80;99.90;;;;;;6155099;23;20325;-92
2021/05/14 12:49:31;;;;;;;17.42;4.10;;;14.60;99.90;;;;;;6180576;23;20078;-91
2021/05/14 12:52:22;;;;;;;11.70;3.50;;;14.60;99.90;;;;;;6179141;23;20020;-93
2021/05/14 12:55:15;;;;;;;15.52;4.32;;;14.40;99.90;;;;;;6189080;23;20028;-92
2021/05/14 12:57:57;;;;;;;11.30;3.20;;;14.80;99.90;;;;;;6179592;23;20013;-91
2021/05/14 13:00:26;;;;;;;13.65;3.70;;;14.50;99.90;;;;;;6192053;23;20040;-91
2021/05/14 13:03:10;;;;;;;10.02;3.65;;;14.30;99.90;;;;;;6179374;23;20017;-91
2021/05/14 13:05:37;;;;;;;9.82;4.03;;;14.30;99.90;;;;;;6190062;23;20471;-91
2021/05/14 13:08:11;;;;;;;11.57;4.40;;;14.70;99.90;;;;;;6154726;23;20351;-91
2021/05/14 13:10:45;;;;;;;11.88;3.40;;;14.70;99.90;;;;;;6190152;23;20092;-91
2021/05/14 13:13:12;;;;;;;11.18;3.55;;;15.00;99.90;;;;;;6181087;23;20021;-92
2021/05/14 13:15:38;;;;;;;14.10;3.42;;;14.70;99.90;;;;;;6179902;23;20478;-91
2021/05/14 13:18:06;;;;;;;12.05;4.00;;;14.50;99.90;;;;;;6179605;23;20016;-91
2021/05/14 13:20:33;;;;;;;13.35;3.80;;;14.30;99.90;;;;;;6180717;23;20029;-91
2021/05/14 13:22:59;;;;;;;22.25;4.65;;;14.00;99.90;;;;;;6178958;23;20015;-92
2021/05/14 13:25:25;;;;;;;17.35;3.40;;;14.30;99.90;;;;;;6180466;23;20023;-91
2021/05/14 13:27:52;;;;;;;10.82;3.90;;;14.40;99.90;;;;;;6177325;23;20016;-91